sensor_id;sensor_type;location;lat;lon;timestamp;temperature;humidity
28438;DHT22;15667;52.376;9.708;2023-05-16T00:00:51;11.00;99.90
28438;DHT22;15667;52.376;9.708;2023-05-16T00:03:18;11.70;99.90
28438;DHT22;15667;52.376;9.708;2023-05-16T00:10:40;11.20;99.90
28438;DHT22;15667;52.376;9.708;2023-05-16T00:13:06;11.20;99.90
28438;DHT22;15667;52.376;9.708;2023-05-16T00:18:03;10.90;99.90
28438;DHT22;15667;52.376;9.708;2023-05-16T00:20:32;10.80;99.90
28438;DHT22;15667;52.376;9.708;2023-05-16T00:23:00;11.10;99.90
28438;DHT22;15667;52.376;9.708;2023-05-16T00:25:26;10.40;99.90
28438;DHT22;15667;52.376;9.708;2023-05-16T00:27:53;12.80;99.90
28438;DHT22;15667;52.376;9.708;2023-05-16T00:30:18;11.70;99.90
28438;DHT22;15667;52.376;9.708;2023-05-16T00:32:44;11.70;99.90
28438;DHT22;15667;52.376;9.708;2023-05-16T00:35:13;10.40;99.90
28438;DHT22;15667;52.376;9.708;2023-05-16T00:37:39;12.50;99.90
28438;DHT22;15667;52.376;9.708;2023-05-16T00:40:05;11.00;99.90
28438;DHT22;15667;52.376;9.708;2023-05-16T00:42:31;11.20;99.90
28438;DHT22;15667;52.376;9.708;2023-05-16T00:44:57;11.40;99.90
28438;DHT22;15667;52.376;9.708;2023-05-16T00:47:23;12.40;99.90
28438;DHT22;15667;52.376;9.708;2023-05-16T00:49:49;12.10;99.90
28438;DHT22;15667;52.376;9.708;2023-05-16T00:52:17;11.10;99.90
28438;DHT22;15667;52.376;9.708;2023-05-16T00:54:43;11.50;99.90
28438;DHT22;15667;52.376;9.708;2023-05-16T00:57:09;12.20;99.90
28438;DHT22;15667;52.376;9.708;2023-05-16T00:59:35;11.00;99.90
28438;DHT22;15667;52.376;9.708;2023-05-16T01:15:14;11.10;99.90
28438;DHT22;15667;52.376;9.708;2023-05-16T01:18:02;11.00;99.90
28438;DHT22;15667;52.376;9.708;2023-05-16T01:23:32;10.80;99.90
28438;DHT22;15667;52.376;9.708;2023-05-16T01:26:16;11.00;99.90
28438;DHT22;15667;52.376;9.708;2023-05-16T01:28:46;10.90;99.90
28438;DHT22;15667;52.376;9.708;2023-05-16T01:31:15;11.00;99.90
28438;DHT22;15667;52.376;9.708;2023-05-16T01:33:41;11.20;99.90
28438;DHT22;15667;52.376;9.708;2023-05-16T01:36:37;12.70;99.90
28438;DHT22;15667;52.376;9.708;2023-05-16T01:39:35;11.10;99.90
28438;DHT22;15667;52.376;9.708;2023-05-16T01:42:08;10.90;99.90
28438;DHT22;15667;52.376;9.708;2023-05-16T01:44:46;11.00;99.90
28438;DHT22;15667;52.376;9.708;2023-05-16T01:47:16;11.10;99.90
28438;DHT22;15667;52.376;9.708;2023-05-16T01:49:56;11.10;99.90
28438;DHT22;15667;52.376;9.708;2023-05-16T01:55:20;11.20;99.90
28438;DHT22;15667;52.376;9.708;2023-05-16T01:57:48;11.00;99.90
28438;DHT22;15667;52.376;9.708;2023-05-16T02:00:15;11.00;99.90
28438;DHT22;15667;52.376;9.708;2023-05-16T02:02:40;11.00;99.90
28438;DHT22;15667;52.376;9.708;2023-05-16T02:05:09;9.90;99.90
28438;DHT22;15667;52.376;9.708;2023-05-16T02:07:35;11.10;99.90
28438;DHT22;15667;52.376;9.708;2023-05-16T02:10:00;10.00;99.90
28438;DHT22;15667;52.376;9.708;2023-05-16T02:12:29;11.00;99.90
28438;DHT22;15667;52.376;9.708;2023-05-16T02:14:55;12.90;99.90
28438;DHT22;15667;52.376;9.708;2023-05-16T02:17:21;11.10;99.90
28438;DHT22;15667;52.376;9.708;2023-05-16T02:19:47;11.10;99.90
28438;DHT22;15667;52.376;9.708;2023-05-16T02:22:15;12.40;99.90
28438;DHT22;15667;52.376;9.708;2023-05-16T02:24:41;12.30;99.90
28438;DHT22;15667;52.376;9.708;2023-05-16T02:29:35;10.80;99.90
28438;DHT22;15667;52.376;9.708;2023-05-16T02:32:04;12.50;99.90
28438;DHT22;15667;52.376;9.708;2023-05-16T02:34:30;9.70;99.90
28438;DHT22;15667;52.376;9.708;2023-05-16T02:36:56;11.30;99.90
28438;DHT22;15667;52.376;9.708;2023-05-16T02:39:22;11.60;99.90
28438;DHT22;15667;52.376;9.708;2023-05-16T02:44:14;11.00;99.90
28438;DHT22;15667;52.376;9.708;2023-05-16T02:46:39;12.60;99.90
28438;DHT22;15667;52.376;9.708;2023-05-16T02:51:31;10.80;99.90
28438;DHT22;15667;52.376;9.708;2023-05-16T02:53:57;9.70;99.90
28438;DHT22;15667;52.376;9.708;2023-05-16T02:56:25;11.10;99.90
28438;DHT22;15667;52.376;9.708;2023-05-16T02:58:53;10.30;99.90
28438;DHT22;15667;52.376;9.708;2023-05-16T03:06:11;10.40;99.90
28438;DHT22;15667;52.376;9.708;2023-05-16T03:11:03;10.40;99.90
28438;DHT22;15667;52.376;9.708;2023-05-16T03:13:29;10.40;99.90
28438;DHT22;15667;52.376;9.708;2023-05-16T03:15:55;11.30;99.90
28438;DHT22;15667;52.376;9.708;2023-05-16T03:25:42;10.50;99.90
28438;DHT22;15667;52.376;9.708;2023-05-16T03:28:11;10.40;99.90
28438;DHT22;15667;52.376;9.708;2023-05-16T03:35:30;10.20;99.90
28438;DHT22;15667;52.376;9.708;2023-05-16T03:37:57;10.10;99.90
28438;DHT22;15667;52.376;9.708;2023-05-16T03:42:59;10.00;99.90
28438;DHT22;15667;52.376;9.708;2023-05-16T03:45:25;10.20;99.90
28438;DHT22;15667;52.376;9.708;2023-05-16T03:47:54;8.60;99.90
28438;DHT22;15667;52.376;9.708;2023-05-16T03:52:52;10.10;99.90
28438;DHT22;15667;52.376;9.708;2023-05-16T03:55:24;10.10;99.90
28438;DHT22;15667;52.376;9.708;2023-05-16T04:02:43;10.20;99.90
28438;DHT22;15667;52.376;9.708;2023-05-16T04:05:10;10.10;99.90
28438;DHT22;15667;52.376;9.708;2023-05-16T04:44:59;10.50;99.90
28438;DHT22;15667;52.376;9.708;2023-05-16T04:49:51;10.30;99.90
28438;DHT22;15667;52.376;9.708;2023-05-16T04:52:18;9.80;99.90
28438;DHT22;15667;52.376;9.708;2023-05-16T04:54:44;10.00;90.50
28438;DHT22;15667;52.376;9.708;2023-05-16T04:57:16;10.30;86.50
28438;DHT22;15667;52.376;9.708;2023-05-16T04:59:42;10.30;91.10
28438;DHT22;15667;52.376;9.708;2023-05-16T05:04:38;10.30;56.80
28438;DHT22;15667;52.376;9.708;2023-05-16T05:12:05;10.20;30.10
28438;DHT22;15667;52.376;9.708;2023-05-16T05:14:32;10.20;8.60
28438;DHT22;15667;52.376;9.708;2023-05-16T05:16:58;11.30;1.00
28438;DHT22;15667;52.376;9.708;2023-05-16T05:19:23;12.10;8.80
28438;DHT22;15667;52.376;9.708;2023-05-16T05:21:49;11.30;1.00
28438;DHT22;15667;52.376;9.708;2023-05-16T05:24:14;10.20;1.00
28438;DHT22;15667;52.376;9.708;2023-05-16T05:26:40;11.50;21.10
28438;DHT22;15667;52.376;9.708;2023-05-16T05:29:06;11.30;15.40
28438;DHT22;15667;52.376;9.708;2023-05-16T05:31:32;10.30;1.00
28438;DHT22;15667;52.376;9.708;2023-05-16T05:52:01;10.20;1.00
28438;DHT22;15667;52.376;9.708;2023-05-16T05:59:18;10.20;1.00
28438;DHT22;15667;52.376;9.708;2023-05-16T06:01:44;11.80;1.00
28438;DHT22;15667;52.376;9.708;2023-05-16T06:04:10;10.10;1.00
28438;DHT22;15667;52.376;9.708;2023-05-16T06:06:36;11.30;1.00
28438;DHT22;15667;52.376;9.708;2023-05-16T06:09:02;10.10;1.00
28438;DHT22;15667;52.376;9.708;2023-05-16T06:11:28;10.30;1.00
28438;DHT22;15667;52.376;9.708;2023-05-16T06:13:53;11.50;1.00
28438;DHT22;15667;52.376;9.708;2023-05-16T06:16:23;12.00;1.00
28438;DHT22;15667;52.376;9.708;2023-05-16T06:18:49;12.00;1.00
28438;DHT22;15667;52.376;9.708;2023-05-16T06:21:14;11.20;1.00
28438;DHT22;15667;52.376;9.708;2023-05-16T06:23:40;12.10;1.00
28438;DHT22;15667;52.376;9.708;2023-05-16T06:26:06;11.30;1.00
28438;DHT22;15667;52.376;9.708;2023-05-16T06:28:31;10.40;1.00
28438;DHT22;15667;52.376;9.708;2023-05-16T06:30:57;10.40;1.00
28438;DHT22;15667;52.376;9.708;2023-05-16T06:33:22;11.00;1.00
28438;DHT22;15667;52.376;9.708;2023-05-16T06:35:49;11.80;1.00
28438;DHT22;15667;52.376;9.708;2023-05-16T06:38:15;10.60;1.00
28438;DHT22;15667;52.376;9.708;2023-05-16T06:40:40;11.30;1.00
28438;DHT22;15667;52.376;9.708;2023-05-16T06:43:06;12.00;1.00
28438;DHT22;15667;52.376;9.708;2023-05-16T06:45:32;11.60;1.00
28438;DHT22;15667;52.376;9.708;2023-05-16T06:50:24;10.90;1.00
28438;DHT22;15667;52.376;9.708;2023-05-16T06:52:49;10.70;1.00
28438;DHT22;15667;52.376;9.708;2023-05-16T06:55:15;12.50;1.00
28438;DHT22;15667;52.376;9.708;2023-05-16T06:57:41;10.60;1.00
28438;DHT22;15667;52.376;9.708;2023-05-16T07:00:07;12.00;1.00
28438;DHT22;15667;52.376;9.708;2023-05-16T07:07:25;11.50;99.90
28438;DHT22;15667;52.376;9.708;2023-05-16T07:09:51;12.10;99.90
28438;DHT22;15667;52.376;9.708;2023-05-16T07:12:16;12.30;99.90
28438;DHT22;15667;52.376;9.708;2023-05-16T07:14:42;12.60;99.90
28438;DHT22;15667;52.376;9.708;2023-05-16T07:19:37;11.40;99.90
28438;DHT22;15667;52.376;9.708;2023-05-16T07:22:03;11.70;99.90
28438;DHT22;15667;52.376;9.708;2023-05-16T07:24:29;11.60;99.90
28438;DHT22;15667;52.376;9.708;2023-05-16T07:26:55;12.70;99.90
28438;DHT22;15667;52.376;9.708;2023-05-16T07:29:20;13.40;10.10
28438;DHT22;15667;52.376;9.708;2023-05-16T07:31:46;12.30;1.00
28438;DHT22;15667;52.376;9.708;2023-05-16T07:34:12;12.50;18.40
28438;DHT22;15667;52.376;9.708;2023-05-16T07:36:37;12.40;1.00
28438;DHT22;15667;52.376;9.708;2023-05-16T07:39:03;13.00;1.00
28438;DHT22;15667;52.376;9.708;2023-05-16T07:41:29;12.60;99.90
28438;DHT22;15667;52.376;9.708;2023-05-16T07:46:21;12.00;99.90
28438;DHT22;15667;52.376;9.708;2023-05-16T07:48:47;13.60;1.00
28438;DHT22;15667;52.376;9.708;2023-05-16T07:53:39;12.30;99.90
28438;DHT22;15667;52.376;9.708;2023-05-16T07:56:05;14.10;99.90
28438;DHT22;15667;52.376;9.708;2023-05-16T07:58:31;12.50;99.90
28438;DHT22;15667;52.376;9.708;2023-05-16T08:00:57;14.10;1.00
28438;DHT22;15667;52.376;9.708;2023-05-16T08:03:23;13.30;99.90
28438;DHT22;15667;52.376;9.708;2023-05-16T08:05:49;11.00;99.90
28438;DHT22;15667;52.376;9.708;2023-05-16T08:08:16;12.90;99.90
28438;DHT22;15667;52.376;9.708;2023-05-16T08:10:41;12.40;99.90
28438;DHT22;15667;52.376;9.708;2023-05-16T08:13:07;12.20;99.90
28438;DHT22;15667;52.376;9.708;2023-05-16T08:15:33;12.50;1.00
28438;DHT22;15667;52.376;9.708;2023-05-16T08:17:58;14.00;22.20
28438;DHT22;15667;52.376;9.708;2023-05-16T08:20:24;12.80;99.90
28438;DHT22;15667;52.376;9.708;2023-05-16T08:22:50;12.90;99.90
28438;DHT22;15667;52.376;9.708;2023-05-16T08:25:16;14.30;99.90
28438;DHT22;15667;52.376;9.708;2023-05-16T08:27:44;13.30;99.90
28438;DHT22;15667;52.376;9.708;2023-05-16T08:30:10;13.70;99.90
28438;DHT22;15667;52.376;9.708;2023-05-16T08:32:36;12.90;99.90
28438;DHT22;15667;52.376;9.708;2023-05-16T08:35:02;13.10;73.20
28438;DHT22;15667;52.376;9.708;2023-05-16T08:37:28;12.80;99.90
28438;DHT22;15667;52.376;9.708;2023-05-16T08:39:53;13.20;1.00
28438;DHT22;15667;52.376;9.708;2023-05-16T08:42:19;13.60;99.90
28438;DHT22;15667;52.376;9.708;2023-05-16T08:44:45;13.80;99.90
28438;DHT22;15667;52.376;9.708;2023-05-16T08:47:13;13.00;98.60
28438;DHT22;15667;52.376;9.708;2023-05-16T08:49:42;13.10;99.90
28438;DHT22;15667;52.376;9.708;2023-05-16T08:52:09;13.50;3.00
28438;DHT22;15667;52.376;9.708;2023-05-16T08:54:36;14.40;1.00
28438;DHT22;15667;52.376;9.708;2023-05-16T08:57:02;14.20;1.00
28438;DHT22;15667;52.376;9.708;2023-05-16T08:59:29;13.30;6.60
28438;DHT22;15667;52.376;9.708;2023-05-16T09:01:56;13.40;99.90
28438;DHT22;15667;52.376;9.708;2023-05-16T09:04:21;15.10;99.90
28438;DHT22;15667;52.376;9.708;2023-05-16T09:06:49;12.50;1.00
28438;DHT22;15667;52.376;9.708;2023-05-16T09:09:16;13.90;1.00
28438;DHT22;15667;52.376;9.708;2023-05-16T09:11:41;14.90;99.90
28438;DHT22;15667;52.376;9.708;2023-05-16T09:14:07;14.90;99.90
28438;DHT22;15667;52.376;9.708;2023-05-16T09:16:33;14.10;99.90
28438;DHT22;15667;52.376;9.708;2023-05-16T09:19:01;14.20;94.00
28438;DHT22;15667;52.376;9.708;2023-05-16T09:21:30;15.00;99.90
28438;DHT22;15667;52.376;9.708;2023-05-16T09:24:03;15.70;1.00
28438;DHT22;15667;52.376;9.708;2023-05-16T09:26:34;13.00;1.00
28438;DHT22;15667;52.376;9.708;2023-05-16T09:29:00;14.50;1.00
28438;DHT22;15667;52.376;9.708;2023-05-16T09:31:28;14.60;99.90
28438;DHT22;15667;52.376;9.708;2023-05-16T09:34:08;14.60;99.90
28438;DHT22;15667;52.376;9.708;2023-05-16T09:36:37;14.80;99.90
28438;DHT22;15667;52.376;9.708;2023-05-16T09:39:04;15.60;62.70
28438;DHT22;15667;52.376;9.708;2023-05-16T09:41:46;15.20;99.90
28438;DHT22;15667;52.376;9.708;2023-05-16T09:44:20;14.80;21.20
28438;DHT22;15667;52.376;9.708;2023-05-16T09:46:46;14.50;99.90
28438;DHT22;15667;52.376;9.708;2023-05-16T09:49:11;14.30;99.90
28438;DHT22;15667;52.376;9.708;2023-05-16T09:51:40;14.60;99.90
28438;DHT22;15667;52.376;9.708;2023-05-16T09:54:09;14.90;1.00
28438;DHT22;15667;52.376;9.708;2023-05-16T09:56:48;15.20;1.00
28438;DHT22;15667;52.376;9.708;2023-05-16T09:59:20;15.80;1.00
28438;DHT22;15667;52.376;9.708;2023-05-16T10:01:50;16.10;99.90
28438;DHT22;15667;52.376;9.708;2023-05-16T10:04:20;15.70;99.90
28438;DHT22;15667;52.376;9.708;2023-05-16T10:06:50;15.70;99.90
28438;DHT22;15667;52.376;9.708;2023-05-16T10:09:18;14.20;99.90
28438;DHT22;15667;52.376;9.708;2023-05-16T10:11:50;16.20;99.90
28438;DHT22;15667;52.376;9.708;2023-05-16T10:14:17;15.50;99.90
28438;DHT22;15667;52.376;9.708;2023-05-16T10:16:46;16.90;34.80
28438;DHT22;15667;52.376;9.708;2023-05-16T10:19:24;17.10;9.10
28438;DHT22;15667;52.376;9.708;2023-05-16T10:21:53;16.50;14.20
28438;DHT22;15667;52.376;9.708;2023-05-16T10:27:26;16.00;1.00
28438;DHT22;15667;52.376;9.708;2023-05-16T10:29:57;16.50;1.00
28438;DHT22;15667;52.376;9.708;2023-05-16T10:32:27;16.90;1.00
28438;DHT22;15667;52.376;9.708;2023-05-16T10:34:55;17.30;1.00
28438;DHT22;15667;52.376;9.708;2023-05-16T10:37:22;17.60;1.00
28438;DHT22;15667;52.376;9.708;2023-05-16T10:39:49;18.20;99.90
28438;DHT22;15667;52.376;9.708;2023-05-16T10:42:15;18.30;99.90
28438;DHT22;15667;52.376;9.708;2023-05-16T10:44:43;18.20;99.90
28438;DHT22;15667;52.376;9.708;2023-05-16T10:47:20;17.80;99.90
28438;DHT22;15667;52.376;9.708;2023-05-16T10:49:49;16.50;99.90
28438;DHT22;15667;52.376;9.708;2023-05-16T10:52:15;16.50;99.90
28438;DHT22;15667;52.376;9.708;2023-05-16T10:54:49;17.20;99.90
28438;DHT22;15667;52.376;9.708;2023-05-16T10:57:22;17.90;99.90
28438;DHT22;15667;52.376;9.708;2023-05-16T10:59:50;18.70;99.90
28438;DHT22;15667;52.376;9.708;2023-05-16T11:02:27;19.70;1.00
28438;DHT22;15667;52.376;9.708;2023-05-16T11:05:00;18.40;40.40
28438;DHT22;15667;52.376;9.708;2023-05-16T11:07:37;17.60;2.60
28438;DHT22;15667;52.376;9.708;2023-05-16T11:10:08;17.70;56.30
28438;DHT22;15667;52.376;9.708;2023-05-16T11:12:47;18.70;1.00
28438;DHT22;15667;52.376;9.708;2023-05-16T11:15:27;16.70;1.00
28438;DHT22;15667;52.376;9.708;2023-05-16T11:18:15;17.50;1.00
28438;DHT22;15667;52.376;9.708;2023-05-16T11:20:42;18.40;1.00
28438;DHT22;15667;52.376;9.708;2023-05-16T11:23:18;18.60;1.00
28438;DHT22;15667;52.376;9.708;2023-05-16T11:25:57;16.30;1.00
28438;DHT22;15667;52.376;9.708;2023-05-16T11:28:28;16.60;15.30
28438;DHT22;15667;52.376;9.708;2023-05-16T11:30:56;16.90;64.40
28438;DHT22;15667;52.376;9.708;2023-05-16T11:33:24;19.00;33.60
28438;DHT22;15667;52.376;9.708;2023-05-16T11:36:03;18.30;44.20
28438;DHT22;15667;52.376;9.708;2023-05-16T11:38:30;19.90;92.10
28438;DHT22;15667;52.376;9.708;2023-05-16T11:41:08;20.60;1.00
28438;DHT22;15667;52.376;9.708;2023-05-16T11:43:40;20.50;1.00
28438;DHT22;15667;52.376;9.708;2023-05-16T11:46:06;21.60;1.00
28438;DHT22;15667;52.376;9.708;2023-05-16T11:48:36;19.80;1.00
28438;DHT22;15667;52.376;9.708;2023-05-16T11:51:02;20.80;1.00
28438;DHT22;15667;52.376;9.708;2023-05-16T11:53:28;21.60;1.00
28438;DHT22;15667;52.376;9.708;2023-05-16T11:55:54;21.30;1.00
28438;DHT22;15667;52.376;9.708;2023-05-16T11:58:20;20.80;1.00
28438;DHT22;15667;52.376;9.708;2023-05-16T12:00:50;20.70;1.00
28438;DHT22;15667;52.376;9.708;2023-05-16T12:03:17;20.30;1.00
28438;DHT22;15667;52.376;9.708;2023-05-16T12:05:55;20.60;1.00
28438;DHT22;15667;52.376;9.708;2023-05-16T12:08:23;20.60;1.00
28438;DHT22;15667;52.376;9.708;2023-05-16T12:10:51;20.80;1.00
28438;DHT22;15667;52.376;9.708;2023-05-16T12:13:18;20.00;1.00
28438;DHT22;15667;52.376;9.708;2023-05-16T12:15:45;19.40;1.00
28438;DHT22;15667;52.376;9.708;2023-05-16T12:18:11;20.20;1.00
28438;DHT22;15667;52.376;9.708;2023-05-16T12:20:42;20.50;1.00
28438;DHT22;15667;52.376;9.708;2023-05-16T12:23:12;19.90;1.00
28438;DHT22;15667;52.376;9.708;2023-05-16T12:25:38;20.20;1.00
28438;DHT22;15667;52.376;9.708;2023-05-16T12:28:11;19.50;1.00
28438;DHT22;15667;52.376;9.708;2023-05-16T12:30:40;20.20;1.00
28438;DHT22;15667;52.376;9.708;2023-05-16T12:33:08;21.10;1.00
28438;DHT22;15667;52.376;9.708;2023-05-16T12:35:36;21.40;1.00
28438;DHT22;15667;52.376;9.708;2023-05-16T12:38:06;21.60;1.00
28438;DHT22;15667;52.376;9.708;2023-05-16T12:40:32;20.70;99.90
28438;DHT22;15667;52.376;9.708;2023-05-16T12:42:58;19.30;1.00
28438;DHT22;15667;52.376;9.708;2023-05-16T12:45:28;17.60;1.00
28438;DHT22;15667;52.376;9.708;2023-05-16T12:47:54;16.50;1.00
28438;DHT22;15667;52.376;9.708;2023-05-16T12:50:20;16.50;1.00
28438;DHT22;15667;52.376;9.708;2023-05-16T12:52:52;15.10;1.00
28438;DHT22;15667;52.376;9.708;2023-05-16T12:55:19;16.00;31.00
28438;DHT22;15667;52.376;9.708;2023-05-16T12:57:46;15.40;34.90
28438;DHT22;15667;52.376;9.708;2023-05-16T13:00:17;16.40;11.60
28438;DHT22;15667;52.376;9.708;2023-05-16T13:02:43;14.70;14.30
28438;DHT22;15667;52.376;9.708;2023-05-16T13:05:09;14.90;1.00
28438;DHT22;15667;52.376;9.708;2023-05-16T13:07:36;16.10;1.00
28438;DHT22;15667;52.376;9.708;2023-05-16T13:10:04;15.70;1.00
28438;DHT22;15667;52.376;9.708;2023-05-16T13:12:30;18.00;1.00
28438;DHT22;15667;52.376;9.708;2023-05-16T13:14:56;18.50;1.00
28438;DHT22;15667;52.376;9.708;2023-05-16T13:17:22;18.70;1.00
28438;DHT22;15667;52.376;9.708;2023-05-16T13:19:50;17.70;1.00
28438;DHT22;15667;52.376;9.708;2023-05-16T13:22:16;16.20;1.00
28438;DHT22;15667;52.376;9.708;2023-05-16T13:24:42;16.80;1.00
28438;DHT22;15667;52.376;9.708;2023-05-16T13:27:07;17.70;1.00
28438;DHT22;15667;52.376;9.708;2023-05-16T13:29:33;18.40;1.00
28438;DHT22;15667;52.376;9.708;2023-05-16T13:31:58;18.10;1.00
28438;DHT22;15667;52.376;9.708;2023-05-16T13:34:24;18.70;1.00
28438;DHT22;15667;52.376;9.708;2023-05-16T13:36:52;20.40;99.90
28438;DHT22;15667;52.376;9.708;2023-05-16T13:39:17;18.70;99.90
28438;DHT22;15667;52.376;9.708;2023-05-16T13:41:43;17.60;99.90
28438;DHT22;15667;52.376;9.708;2023-05-16T13:44:09;16.80;99.90
28438;DHT22;15667;52.376;9.708;2023-05-16T13:46:35;16.70;1.00
28438;DHT22;15667;52.376;9.708;2023-05-16T13:49:00;16.40;1.00
28438;DHT22;15667;52.376;9.708;2023-05-16T13:51:26;17.00;1.00
28438;DHT22;15667;52.376;9.708;2023-05-16T13:53:51;16.30;1.00
28438;DHT22;15667;52.376;9.708;2023-05-16T13:56:17;17.70;1.00
28438;DHT22;15667;52.376;9.708;2023-05-16T13:58:43;17.90;1.00
28438;DHT22;15667;52.376;9.708;2023-05-16T14:01:08;17.20;1.00
28438;DHT22;15667;52.376;9.708;2023-05-16T14:03:34;16.50;1.00
28438;DHT22;15667;52.376;9.708;2023-05-16T14:06:02;17.30;1.00
28438;DHT22;15667;52.376;9.708;2023-05-16T14:08:31;16.20;1.00
28438;DHT22;15667;52.376;9.708;2023-05-16T14:10:57;15.10;1.00
28438;DHT22;15667;52.376;9.708;2023-05-16T14:13:25;16.20;1.00
28438;DHT22;15667;52.376;9.708;2023-05-16T14:15:55;14.50;1.00
28438;DHT22;15667;52.376;9.708;2023-05-16T14:18:26;13.40;1.00
28438;DHT22;15667;52.376;9.708;2023-05-16T14:20:52;14.30;1.00
28438;DHT22;15667;52.376;9.708;2023-05-16T14:23:23;14.70;1.00
28438;DHT22;15667;52.376;9.708;2023-05-16T14:25:49;14.30;1.00
28438;DHT22;15667;52.376;9.708;2023-05-16T14:28:14;13.80;1.00
28438;DHT22;15667;52.376;9.708;2023-05-16T14:30:41;13.20;1.00
28438;DHT22;15667;52.376;9.708;2023-05-16T14:33:06;13.90;1.00
28438;DHT22;15667;52.376;9.708;2023-05-16T14:35:32;14.20;1.00
28438;DHT22;15667;52.376;9.708;2023-05-16T14:37:57;14.30;1.00
28438;DHT22;15667;52.376;9.708;2023-05-16T14:40:23;14.70;1.00
28438;DHT22;15667;52.376;9.708;2023-05-16T14:42:49;15.50;1.00
28438;DHT22;15667;52.376;9.708;2023-05-16T14:45:15;14.70;1.00
28438;DHT22;15667;52.376;9.708;2023-05-16T14:47:41;16.00;1.00
28438;DHT22;15667;52.376;9.708;2023-05-16T14:50:08;17.50;1.00
28438;DHT22;15667;52.376;9.708;2023-05-16T14:52:36;18.00;1.00
28438;DHT22;15667;52.376;9.708;2023-05-16T14:55:03;20.20;1.00
28438;DHT22;15667;52.376;9.708;2023-05-16T14:57:28;19.00;1.00
28438;DHT22;15667;52.376;9.708;2023-05-16T14:59:54;19.70;1.00
28438;DHT22;15667;52.376;9.708;2023-05-16T15:02:20;19.40;1.00
28438;DHT22;15667;52.376;9.708;2023-05-16T15:04:45;20.20;99.90
28438;DHT22;15667;52.376;9.708;2023-05-16T15:07:11;19.80;99.90
28438;DHT22;15667;52.376;9.708;2023-05-16T15:09:37;20.00;1.00
28438;DHT22;15667;52.376;9.708;2023-05-16T15:12:03;20.40;99.90
28438;DHT22;15667;52.376;9.708;2023-05-16T15:14:29;19.10;99.90
28438;DHT22;15667;52.376;9.708;2023-05-16T15:16:54;19.00;99.90
28438;DHT22;15667;52.376;9.708;2023-05-16T15:19:20;16.90;99.90
28438;DHT22;15667;52.376;9.708;2023-05-16T15:21:48;16.00;1.00
28438;DHT22;15667;52.376;9.708;2023-05-16T15:24:14;16.70;1.00
28438;DHT22;15667;52.376;9.708;2023-05-16T15:26:41;16.00;1.00
28438;DHT22;15667;52.376;9.708;2023-05-16T15:29:07;15.70;1.00
28438;DHT22;15667;52.376;9.708;2023-05-16T15:31:32;15.60;1.00
28438;DHT22;15667;52.376;9.708;2023-05-16T15:33:58;15.70;1.00
28438;DHT22;15667;52.376;9.708;2023-05-16T15:36:27;16.80;1.00
28438;DHT22;15667;52.376;9.708;2023-05-16T15:38:53;14.90;1.00
28438;DHT22;15667;52.376;9.708;2023-05-16T15:41:24;15.20;1.00
28438;DHT22;15667;52.376;9.708;2023-05-16T15:47:12;15.70;1.00
28438;DHT22;15667;52.376;9.708;2023-05-16T15:49:42;13.30;99.90
28438;DHT22;15667;52.376;9.708;2023-05-16T15:52:11;14.10;99.90
28438;DHT22;15667;52.376;9.708;2023-05-16T15:54:37;13.80;99.90
28438;DHT22;15667;52.376;9.708;2023-05-16T15:57:09;13.50;99.90
28438;DHT22;15667;52.376;9.708;2023-05-16T15:59:35;13.60;1.00
28438;DHT22;15667;52.376;9.708;2023-05-16T16:02:00;15.10;99.90
28438;DHT22;15667;52.376;9.708;2023-05-16T16:04:35;14.00;12.10
28438;DHT22;15667;52.376;9.708;2023-05-16T16:07:25;13.10;1.00
28438;DHT22;15667;52.376;9.708;2023-05-16T16:09:52;13.30;1.00
28438;DHT22;15667;52.376;9.708;2023-05-16T16:13:05;13.20;99.90
28438;DHT22;15667;52.376;9.708;2023-05-16T16:15:31;13.10;99.90
28438;DHT22;15667;52.376;9.708;2023-05-16T16:17:57;11.50;99.90
28438;DHT22;15667;52.376;9.708;2023-05-16T16:20:24;13.40;1.00
28438;DHT22;15667;52.376;9.708;2023-05-16T16:22:51;14.40;1.00
28438;DHT22;15667;52.376;9.708;2023-05-16T16:25:16;13.90;99.90
28438;DHT22;15667;52.376;9.708;2023-05-16T16:27:45;14.90;1.00
28438;DHT22;15667;52.376;9.708;2023-05-16T16:30:23;13.00;1.00
28438;DHT22;15667;52.376;9.708;2023-05-16T16:33:14;13.80;1.00
28438;DHT22;15667;52.376;9.708;2023-05-16T16:35:45;12.60;99.90
28438;DHT22;15667;52.376;9.708;2023-05-16T16:38:11;13.70;99.90
28438;DHT22;15667;52.376;9.708;2023-05-16T16:40:36;13.40;99.90
28438;DHT22;15667;52.376;9.708;2023-05-16T16:43:02;13.70;99.90
28438;DHT22;15667;52.376;9.708;2023-05-16T16:45:33;14.40;1.00
28438;DHT22;15667;52.376;9.708;2023-05-16T16:47:59;14.70;1.00
28438;DHT22;15667;52.376;9.708;2023-05-16T16:50:28;14.20;24.60
28438;DHT22;15667;52.376;9.708;2023-05-16T16:53:00;13.90;99.90
28438;DHT22;15667;52.376;9.708;2023-05-16T16:55:26;13.50;1.00
28438;DHT22;15667;52.376;9.708;2023-05-16T16:57:57;13.80;1.00
28438;DHT22;15667;52.376;9.708;2023-05-16T17:22:06;13.70;99.90
28438;DHT22;15667;52.376;9.708;2023-05-16T17:24:32;13.40;1.00
28438;DHT22;15667;52.376;9.708;2023-05-16T17:26:58;13.90;1.00
28438;DHT22;15667;52.376;9.708;2023-05-16T17:29:27;15.30;1.00
28438;DHT22;15667;52.376;9.708;2023-05-16T17:31:53;14.90;1.00
28438;DHT22;15667;52.376;9.708;2023-05-16T17:34:18;14.30;99.90
28438;DHT22;15667;52.376;9.708;2023-05-16T17:36:44;13.80;99.90
28438;DHT22;15667;52.376;9.708;2023-05-16T17:39:10;14.50;99.90
28438;DHT22;15667;52.376;9.708;2023-05-16T17:41:36;14.70;1.00
28438;DHT22;15667;52.376;9.708;2023-05-16T17:44:05;13.90;1.00
28438;DHT22;15667;52.376;9.708;2023-05-16T17:46:35;13.90;1.00
28438;DHT22;15667;52.376;9.708;2023-05-16T17:49:05;13.30;1.00
28438;DHT22;15667;52.376;9.708;2023-05-16T17:51:54;13.20;99.90
28438;DHT22;15667;52.376;9.708;2023-05-16T17:54:23;13.20;99.90
28438;DHT22;15667;52.376;9.708;2023-05-16T17:56:51;14.00;99.90
28438;DHT22;15667;52.376;9.708;2023-05-16T17:59:18;14.40;99.90
28438;DHT22;15667;52.376;9.708;2023-05-16T18:01:44;14.80;99.90
28438;DHT22;15667;52.376;9.708;2023-05-16T18:04:10;15.00;99.90
28438;DHT22;15667;52.376;9.708;2023-05-16T18:06:39;13.40;99.90
28438;DHT22;15667;52.376;9.708;2023-05-16T18:09:14;15.10;1.00
28438;DHT22;15667;52.376;9.708;2023-05-16T18:11:40;15.00;1.00
28438;DHT22;15667;52.376;9.708;2023-05-16T18:14:09;13.80;1.00
28438;DHT22;15667;52.376;9.708;2023-05-16T18:16:42;13.40;1.00
28438;DHT22;15667;52.376;9.708;2023-05-16T18:19:14;12.00;99.90
28438;DHT22;15667;52.376;9.708;2023-05-16T18:21:42;13.00;1.00
28438;DHT22;15667;52.376;9.708;2023-05-16T18:24:09;13.30;1.00
28438;DHT22;15667;52.376;9.708;2023-05-16T18:26:45;14.30;1.00
28438;DHT22;15667;52.376;9.708;2023-05-16T18:29:23;13.80;1.00
28438;DHT22;15667;52.376;9.708;2023-05-16T18:32:09;14.40;99.90
28438;DHT22;15667;52.376;9.708;2023-05-16T18:34:38;14.60;99.90
28438;DHT22;15667;52.376;9.708;2023-05-16T18:37:07;13.60;1.00
28438;DHT22;15667;52.376;9.708;2023-05-16T18:42:05;12.60;44.10